Arlington, Maryland
Current Conditions -  °F | °C
As of 1:54 PM on Thursday 18 Dec 2014 (Local Time) from KBWI Reporting Station
Broken Clouds Broken Clouds  
Wind Chill: 30°   Ceiling: 3800
Heat Index: 38°   Visibility: 10mi
Dew Point: 22°   Wind: 14mph
Humidity: 53%   Direction: 300°WNW
Pressure: 30.09"   Gusts: NA
Location:  39.3453°N, 76.6832°W
Report Text: KBWI 181854Z 30012KT 10SM BKN038 BKN160 BKN250 03/M06 A3009 RMK AO2 SLP189 T00331056
Loading
Personal Weather Stations






























Interactive Weather Map New forecast layout! Learn more

10-Day Weather Forecast

Advertisements
Track Severe Weather on mobile